Time;durP1;ratioP1;P1;durP2;ratioP2;P2;SDS_P1;SDS_P2;PMS_P1;PMS_P2;Temp;Humidity;BMP_temperature;BMP_pressure;BME280_temperature;BME280_humidity;BME280_pressure;Samples;Min_cycle;Max_cycle;Signal;HPM_P1;HPM_P2
2024/01/11 00:02:46;;;;;;;32.78;17.70;;;;;;;-144.32;100.00;68061.97;10352640;28;20070;-78
2024/01/11 00:08:46;;;;;;;34.15;17.10;;;;;;;-144.32;100.00;68061.97;10354178;28;20050;-76
2024/01/11 00:14:45;;;;;;;38.50;18.35;;;;;;;-144.32;100.00;68061.97;10377262;28;20074;-79
2024/01/11 00:20:44;;;;;;;38.25;18.25;;;;;;;-144.32;100.00;68061.97;10377603;28;20054;-78
2024/01/11 00:26:46;;;;;;;34.28;17.52;;;;;;;-144.32;100.00;68061.97;10369243;28;20065;-76
2024/01/11 00:32:45;;;;;;;34.85;17.50;;;;;;;-144.32;100.00;68061.97;10345841;28;20065;-77
2024/01/11 00:38:44;;;;;;;37.50;18.02;;;;;;;-144.32;100.00;68061.97;10360845;28;20120;-78
2024/01/11 00:44:44;;;;;;;35.25;17.13;;;;;;;-144.32;100.00;68061.97;10357183;28;20160;-77
2024/01/11 00:50:44;;;;;;;38.85;20.45;;;;;;;-144.32;100.00;68061.97;10360554;28;20052;-78
2024/01/11 00:56:43;;;;;;;42.40;20.35;;;;;;;-144.32;100.00;68061.97;10360104;28;20050;-76
2024/01/11 01:02:46;;;;;;;43.33;20.27;;;;;;;-144.32;100.00;68061.97;10359761;28;20064;-79
2024/01/11 01:08:45;;;;;;;34.00;18.65;;;;;;;-144.32;100.00;68061.97;10359311;28;20077;-75
2024/01/11 01:14:44;;;;;;;40.70;20.58;;;;;;;-144.32;100.00;68061.97;10355386;28;20058;-75
2024/01/11 01:20:43;;;;;;;41.90;18.45;;;;;;;-144.32;100.00;68061.97;10352918;28;20147;-75
2024/01/11 01:26:42;;;;;;;37.13;20.02;;;;;;;-144.32;100.00;68061.97;10354969;28;20160;-77
2024/01/11 01:32:41;;;;;;;40.53;21.02;;;;;;;-144.32;100.00;68061.97;10354923;28;20081;-78
2024/01/11 01:38:40;;;;;;;40.03;20.55;;;;;;;-144.32;100.00;68061.97;10350075;28;20093;-76
2024/01/11 01:44:41;;;;;;;44.47;21.35;;;;;;;-144.32;100.00;68061.97;10346417;28;20050;-78
2024/01/11 01:50:42;;;;;;;40.03;21.25;;;;;;;-144.32;100.00;68061.97;10327214;28;20049;-77
2024/01/11 01:56:41;;;;;;;38.35;20.98;;;;;;;-144.32;100.00;68061.97;10350193;28;20061;-75
2024/01/11 02:02:43;;;;;;;43.08;20.80;;;;;;;-144.32;100.00;68061.97;10352097;28;20053;-78
2024/01/11 02:08:43;;;;;;;38.83;21.70;;;;;;;-144.32;100.00;68061.97;10352054;28;20062;-75
2024/01/11 02:14:42;;;;;;;37.78;20.88;;;;;;;-144.32;100.00;68061.97;10352014;28;20065;-76
2024/01/11 02:20:45;;;;;;;37.03;19.90;;;;;;;-144.32;100.00;68061.97;10360089;28;20490;-78
2024/01/11 02:27:00;;;;;;;41.85;20.73;;;;;;;-144.32;100.00;68061.97;10352736;28;20083;-76
2024/01/11 02:33:01;;;;;;;45.25;22.00;;;;;;;-144.32;100.00;68061.97;10349518;28;20060;-76
2024/01/11 02:39:00;;;;;;;46.67;21.70;;;;;;;-144.32;100.00;68061.97;10348451;28;20166;-76
2024/01/11 02:44:59;;;;;;;39.95;21.30;;;;;;;-144.32;100.00;68061.97;10346485;28;20050;-78
2024/01/11 02:50:58;;;;;;;37.42;20.92;;;;;;;-144.32;100.00;68061.97;10343865;28;20069;-78
2024/01/11 02:56:58;;;;;;;38.25;20.77;;;;;;;-144.32;100.00;68061.97;10352642;28;20193;-76
2024/01/11 03:02:57;;;;;;;38.97;19.95;;;;;;;-144.32;100.00;68061.97;10350009;28;20061;-76
2024/01/11 03:08:58;;;;;;;43.45;20.02;;;;;;;-144.32;100.00;68061.97;10348781;28;20147;-77
2024/01/11 03:14:57;;;;;;;43.10;21.40;;;;;;;-144.32;100.00;68061.97;10354164;28;20116;-78
2024/01/11 03:20:57;;;;;;;48.88;22.63;;;;;;;-144.32;100.00;68061.97;10357638;28;20120;-77
2024/01/11 03:26:56;;;;;;;45.63;21.55;;;;;;;-144.32;100.00;68061.97;10364061;28;20046;-77
2024/01/11 03:32:55;;;;;;;44.38;21.63;;;;;;;-144.32;100.00;68061.97;10362619;28;20127;-77
2024/01/11 03:38:54;;;;;;;49.55;22.67;;;;;;;-144.32;100.00;68061.97;10367737;28;20152;-75
2024/01/11 03:44:55;;;;;;;43.80;21.30;;;;;;;-144.32;100.00;68061.97;10365366;28;20062;-78
2024/01/11 03:50:54;;;;;;;45.75;22.50;;;;;;;-144.32;100.00;68061.97;10363650;28;20056;-77
2024/01/11 03:56:53;;;;;;;47.28;22.30;;;;;;;-144.32;100.00;68061.97;10347022;28;20057;-76
2024/01/11 04:02:52;;;;;;;47.22;23.15;;;;;;;-144.32;100.00;68061.97;10361583;28;20066;-75
2024/01/11 04:08:52;;;;;;;38.88;19.67;;;;;;;-144.32;100.00;68061.97;10359699;28;20057;-75
2024/01/11 04:14:51;;;;;;;49.20;24.30;;;;;;;-144.32;100.00;68061.97;10362658;28;20063;-77
2024/01/11 04:20:50;;;;;;;48.72;23.65;;;;;;;-144.32;100.00;68061.97;10357274;28;21036;-79
2024/01/11 04:26:49;;;;;;;45.53;23.15;;;;;;;-144.32;100.00;68061.97;10352313;28;20054;-78
2024/01/11 04:32:48;;;;;;;49.70;24.75;;;;;;;-144.32;100.00;68061.97;10352253;28;20636;-78
2024/01/11 04:38:47;;;;;;;48.33;22.25;;;;;;;-144.32;100.00;68061.97;10355861;28;20061;-81
2024/01/11 04:44:46;;;;;;;50.42;23.10;;;;;;;-144.32;100.00;68061.97;10350067;28;20062;-76
2024/01/11 04:50:46;;;;;;;45.78;21.55;;;;;;;-144.32;100.00;68061.97;10358569;28;20124;-78
2024/01/11 04:56:45;;;;;;;46.63;21.73;;;;;;;-144.32;100.00;68061.97;10356090;28;20050;-77
2024/01/11 05:02:45;;;;;;;41.28;21.35;;;;;;;-144.32;100.00;68061.97;10330660;28;20068;-75
2024/01/11 05:08:47;;;;;;;41.15;19.70;;;;;;;-144.32;100.00;68061.97;10351144;28;20051;-74
2024/01/11 05:14:46;;;;;;;41.03;19.90;;;;;;;-144.32;100.00;68061.97;10348876;28;20443;-76
2024/01/11 05:20:46;;;;;;;41.55;20.45;;;;;;;-144.32;100.00;68061.97;10346925;28;20550;-74
2024/01/11 05:26:45;;;;;;;43.10;21.38;;;;;;;-144.32;100.00;68061.97;10349619;28;20078;-76
2024/01/11 05:32:46;;;;;;;39.78;21.02;;;;;;;-144.32;100.00;68061.97;10338156;28;20058;-76
2024/01/11 05:38:45;;;;;;;37.40;19.38;;;;;;;-144.32;100.00;68061.97;10353285;28;20153;-75
2024/01/11 05:44:44;;;;;;;38.92;20.02;;;;;;;-144.32;100.00;68061.97;10355488;28;20132;-74
2024/01/11 05:50:44;;;;;;;39.03;19.65;;;;;;;-144.32;100.00;68061.97;10360289;28;20058;-75
2024/01/11 05:56:43;;;;;;;45.30;21.00;;;;;;;-144.32;100.00;68061.97;10354738;28;20050;-76
2024/01/11 06:02:42;;;;;;;42.83;21.33;;;;;;;-144.32;100.00;68061.97;10332446;28;20116;-75
2024/01/11 06:08:43;;;;;;;38.72;20.98;;;;;;;-144.32;100.00;68061.97;10346868;28;20152;-78
2024/01/11 06:14:42;;;;;;;43.35;21.15;;;;;;;-144.32;100.00;68061.97;10354960;28;20119;-75
2024/01/11 06:20:41;;;;;;;41.30;19.33;;;;;;;-144.32;100.00;68061.97;10348115;28;20140;-78
2024/01/11 06:26:40;;;;;;;44.95;19.90;;;;;;;-144.32;100.00;68061.97;10353164;28;20521;-75
2024/01/11 06:32:39;;;;;;;38.42;19.40;;;;;;;-144.32;100.00;68061.97;10349126;28;20065;-74
2024/01/11 06:38:38;;;;;;;41.40;20.65;;;;;;;-144.32;100.00;68061.97;10338124;28;20132;-75
2024/01/11 06:44:37;;;;;;;54.90;25.02;;;;;;;-144.32;100.00;68061.97;10354004;28;20494;-77
2024/01/11 06:50:37;;;;;;;40.22;21.27;;;;;;;-144.32;100.00;68061.97;10361757;28;20508;-76
2024/01/11 06:56:36;;;;;;;37.40;20.67;;;;;;;-144.32;100.00;68061.97;10360762;28;20046;-73
2024/01/11 07:02:35;;;;;;;36.00;20.70;;;;;;;-144.32;100.00;68061.97;10354200;28;20066;-73
2024/01/11 07:08:34;;;;;;;39.33;20.23;;;;;;;-144.32;100.00;68061.97;10354410;28;20038;-77
2024/01/11 07:14:34;;;;;;;44.15;23.50;;;;;;;-144.32;100.00;68061.97;10350654;28;20338;-76
2024/01/11 07:20:33;;;;;;;41.60;20.05;;;;;;;-144.32;100.00;68061.97;10343004;28;20045;-73
2024/01/11 07:26:32;;;;;;;45.85;22.52;;;;;;;-144.32;100.00;68061.97;10347509;28;20046;-73
2024/01/11 07:32:31;;;;;;;43.33;21.02;;;;;;;-144.32;100.00;68061.97;10334698;28;20065;-75
2024/01/11 07:38:31;;;;;;;46.70;23.02;;;;;;;-144.32;100.00;68061.97;10343401;28;20053;-78
2024/01/11 07:44:30;;;;;;;41.90;21.40;;;;;;;-144.32;100.00;68061.97;10325376;28;20049;-76
2024/01/11 07:50:29;;;;;;;45.63;22.23;;;;;;;-144.32;100.00;68061.97;10350335;28;20546;-74
2024/01/11 07:56:31;;;;;;;41.30;21.42;;;;;;;-144.32;100.00;68061.97;10343922;28;20065;-74
2024/01/11 08:02:30;;;;;;;46.22;23.35;;;;;;;-144.32;100.00;68061.97;10350759;28;20054;-79
2024/01/11 08:08:29;;;;;;;47.47;23.70;;;;;;;-144.32;100.00;68061.97;10348106;28;20504;-74
2024/01/11 08:14:28;;;;;;;42.15;22.48;;;;;;;-144.32;100.00;68061.97;10345643;28;20058;-79
2024/01/11 08:20:27;;;;;;;44.78;22.30;;;;;;;-144.32;100.00;68061.97;10352449;28;20065;-75
2024/01/11 08:26:26;;;;;;;40.58;22.00;;;;;;;-144.32;100.00;68061.97;10359173;28;20056;-77
2024/01/11 08:32:25;;;;;;;42.22;21.15;;;;;;;-144.32;100.00;68061.97;10356630;28;20085;-77
2024/01/11 08:38:24;;;;;;;44.83;22.20;;;;;;;-144.32;100.00;68061.97;10343921;28;21283;-75
2024/01/11 08:44:26;;;;;;;41.25;21.67;;;;;;;-144.32;100.00;68061.97;10364194;28;20123;-76
2024/01/11 08:50:25;;;;;;;36.92;21.05;;;;;;;-144.32;100.00;68061.97;10345685;28;20604;-78
2024/01/11 08:56:25;;;;;;;38.17;21.05;;;;;;;-144.32;100.00;68061.97;10359108;28;21266;-77
2024/01/11 09:02:24;;;;;;;43.78;22.08;;;;;;;-144.32;100.00;68061.97;10367175;28;20143;-73
2024/01/11 09:08:23;;;;;;;39.63;21.42;;;;;;;-144.32;100.00;68061.97;10368001;28;20434;-75
2024/01/11 09:14:22;;;;;;;38.40;20.63;;;;;;;-144.32;100.00;68061.97;10344300;28;20124;-80
2024/01/11 09:20:22;;;;;;;39.25;21.40;;;;;;;-144.32;100.00;68061.97;10397935;28;20065;-82
2024/01/11 09:26:22;;;;;;;38.85;21.42;;;;;;;-144.32;100.00;68061.97;10352942;28;20065;-83
2024/01/11 09:32:21;;;;;;;37.80;21.63;;;;;;;-144.32;100.00;68061.97;10360912;28;20084;-77
2024/01/11 09:38:20;;;;;;;37.95;20.20;;;;;;;-144.32;100.00;68061.97;10371053;28;20139;-79
2024/01/11 09:44:19;;;;;;;36.13;20.55;;;;;;;-144.32;100.00;68061.97;10373440;28;20052;-78
2024/01/11 09:50:21;;;;;;;37.83;21.20;;;;;;;-144.32;100.00;68061.97;10369898;28;20493;-80
2024/01/11 09:56:20;;;;;;;39.42;20.13;;;;;;;-144.32;100.00;68061.97;10357716;28;20465;-78
2024/01/11 10:02:19;;;;;;;35.83;20.00;;;;;;;-144.32;100.00;68061.97;10366882;28;20069;-80
2024/01/11 10:08:22;;;;;;;35.20;19.17;;;;;;;-144.32;100.00;68061.97;10365744;28;20057;-75
2024/01/11 10:14:30;;;;;;;35.10;18.02;;;;;;;-144.32;100.00;68061.97;10353898;28;20053;-77
2024/01/11 10:20:30;;;;;;;37.05;19.27;;;;;;;-144.32;100.00;68061.97;10358161;28;20116;-75
2024/01/11 10:26:30;;;;;;;35.42;19.40;;;;;;;-144.32;100.00;68061.97;10337675;28;20701;-79
2024/01/11 10:32:29;;;;;;;33.08;18.45;;;;;;;-144.32;100.00;68061.97;10356270;28;20216;-77
2024/01/11 10:38:30;;;;;;;35.42;19.40;;;;;;;-144.32;100.00;68061.97;10358575;28;20057;-75
2024/01/11 10:44:32;;;;;;;38.63;19.42;;;;;;;-144.32;100.00;68061.97;10365130;28;20049;-78
2024/01/11 10:50:37;;;;;;;37.47;19.13;;;;;;;-144.32;100.00;68061.97;10338946;28;20061;-79
2024/01/11 10:56:40;;;;;;;31.95;19.13;;;;;;;-144.32;100.00;68061.97;10356713;28;20049;-75
2024/01/11 11:02:40;;;;;;;34.40;18.95;;;;;;;-144.32;100.00;68061.97;10348405;28;20062;-75
2024/01/11 11:08:41;;;;;;;35.30;17.50;;;;;;;-144.32;100.00;68061.97;10337388;28;20050;-74
2024/01/11 11:14:43;;;;;;;34.35;19.13;;;;;;;-144.32;100.00;68061.97;10358774;28;20110;-76
2024/01/11 11:20:43;;;;;;;35.33;18.50;;;;;;;-144.32;100.00;68061.97;10351258;28;20637;-76
2024/01/11 11:26:43;;;;;;;30.98;18.10;;;;;;;-144.32;100.00;68061.97;10350109;28;20053;-77
2024/01/11 11:32:43;;;;;;;28.83;17.30;;;;;;;-144.32;100.00;68061.97;10353200;28;20080;-78
2024/01/11 11:38:42;;;;;;;34.80;19.98;;;;;;;-144.32;100.00;68061.97;10349725;28;20054;-83
2024/01/11 11:44:50;;;;;;;26.52;16.85;;;;;;;-144.32;100.00;68061.97;10349559;28;20157;-78
2024/01/11 11:51:06;;;;;;;29.88;18.17;;;;;;;-144.32;100.00;68061.97;10350081;28;20158;-78
2024/01/11 11:57:06;;;;;;;28.05;16.13;;;;;;;-144.32;100.00;68061.97;10346605;28;20100;-77
2024/01/11 12:03:08;;;;;;;25.00;15.13;;;;;;;-144.32;100.00;68061.97;10352745;28;20049;-80
2024/01/11 12:09:07;;;;;;;24.40;15.82;;;;;;;-144.32;100.00;68061.97;10356487;28;20054;-76
2024/01/11 12:15:07;;;;;;;31.92;18.17;;;;;;;-144.32;100.00;68061.97;10353707;28;20061;-76
2024/01/11 12:21:07;;;;;;;22.25;14.35;;;;;;;-144.32;100.00;68061.97;10340559;28;20169;-77
2024/01/11 12:27:06;;;;;;;22.05;13.77;;;;;;;-144.32;100.00;68061.97;10345485;28;20910;-76
2024/01/11 12:33:06;;;;;;;29.58;15.52;;;;;;;-144.32;100.00;68061.97;10359495;28;20050;-78
2024/01/11 12:39:06;;;;;;;26.90;15.13;;;;;;;-144.32;100.00;68061.97;10359285;28;20049;-76
2024/01/11 12:45:06;;;;;;;21.33;14.65;;;;;;;-144.32;100.00;68061.97;10355442;28;20057;-78
2024/01/11 12:51:05;;;;;;;19.85;14.40;;;;;;;-144.32;100.00;68061.97;10354344;28;20046;-77
2024/01/11 12:57:05;;;;;;;23.88;14.35;;;;;;;-144.32;100.00;68061.97;10350138;28;20065;-79
2024/01/11 13:03:05;;;;;;;20.58;13.63;;;;;;;-144.32;100.00;68061.97;10343687;28;20065;-78
2024/01/11 13:09:08;;;;;;;22.92;14.35;;;;;;;-144.32;100.00;68061.97;10388679;28;20078;-79
2024/01/11 13:15:07;;;;;;;25.63;15.13;;;;;;;-144.32;100.00;68061.97;10374356;28;20069;-77
2024/01/11 13:21:07;;;;;;;25.73;15.35;;;;;;;-144.32;100.00;68061.97;10361992;28;21367;-78
2024/01/11 13:27:06;;;;;;;24.92;15.15;;;;;;;-144.32;100.00;68061.97;10354505;28;20123;-76
2024/01/11 13:33:05;;;;;;;27.30;15.18;;;;;;;-144.32;100.00;68061.97;10336571;28;20412;-77
2024/01/11 13:39:08;;;;;;;21.73;14.35;;;;;;;-144.32;100.00;68061.97;10354614;28;20045;-79
2024/01/11 13:45:08;;;;;;;20.38;13.27;;;;;;;-144.32;100.00;68061.97;10335203;28;20105;-77
2024/01/11 13:51:09;;;;;;;22.05;13.35;;;;;;;-144.32;100.00;68061.97;10355353;28;20061;-76
2024/01/11 13:57:08;;;;;;;20.23;12.98;;;;;;;-144.32;100.00;68061.97;10347921;28;20057;-77
2024/01/11 14:03:08;;;;;;;23.33;14.27;;;;;;;-144.32;100.00;68061.97;10354352;28;20057;-77
2024/01/11 14:09:09;;;;;;;24.10;13.85;;;;;;;-144.32;100.00;68061.97;10350478;28;20161;-78
2024/01/11 14:15:11;;;;;;;23.17;13.85;;;;;;;-144.32;100.00;68061.97;10318301;28;20080;-74
2024/01/11 14:21:11;;;;;;;26.73;14.75;;;;;;;-144.32;100.00;68061.97;10352004;28;20046;-76
2024/01/11 14:27:10;;;;;;;25.48;13.45;;;;;;;-144.32;100.00;68061.97;10352447;28;20062;-76
2024/01/11 14:33:09;;;;;;;24.17;13.82;;;;;;;-144.32;100.00;68061.97;10332359;28;20066;-76
2024/01/11 14:39:09;;;;;;;29.42;15.68;;;;;;;-144.32;100.00;68061.97;10350843;28;20077;-78
2024/01/11 14:45:09;;;;;;;25.08;14.88;;;;;;;-144.32;100.00;68061.97;10340402;28;20088;-77
2024/01/11 14:51:08;;;;;;;27.38;14.05;;;;;;;-144.32;100.00;68061.97;10352687;28;20061;-76
2024/01/11 14:57:08;;;;;;;24.38;14.05;;;;;;;-144.32;100.00;68061.97;10348658;28;20065;-79
2024/01/11 15:03:07;;;;;;;24.90;15.40;;;;;;;-144.32;100.00;68061.97;10357144;28;20065;-77
2024/01/11 15:09:06;;;;;;;23.05;12.65;;;;;;;-144.32;100.00;68061.97;10350192;28;20583;-76
2024/01/11 15:15:06;;;;;;;21.60;13.43;;;;;;;-144.32;100.00;68061.97;10350956;28;20054;-77
2024/01/11 15:21:07;;;;;;;24.65;14.23;;;;;;;-144.32;100.00;68061.97;10329016;28;20557;-74
2024/01/11 15:27:06;;;;;;;23.73;13.35;;;;;;;-144.32;100.00;68061.97;10332848;28;20204;-77
2024/01/11 15:33:05;;;;;;;21.60;13.02;;;;;;;-144.32;100.00;68061.97;10355319;28;20112;-77
2024/01/11 15:39:07;;;;;;;28.67;14.30;;;;;;;-144.32;100.00;68061.97;10336361;28;20084;-77
2024/01/11 15:45:11;;;;;;;24.17;14.10;;;;;;;-144.32;100.00;68061.97;10333575;28;20092;-76
2024/01/11 15:51:14;;;;;;;24.80;14.57;;;;;;;-144.32;100.00;68061.97;10328472;28;20058;-76
2024/01/11 15:57:13;;;;;;;31.17;18.45;;;;;;;-144.32;100.00;68061.97;10348405;28;20065;-77
2024/01/11 16:03:12;;;;;;;25.77;15.32;;;;;;;-144.32;100.00;68061.97;10348777;28;20056;-76
2024/01/11 16:09:11;;;;;;;28.17;15.23;;;;;;;-144.32;100.00;68061.97;10355266;28;20073;-76
2024/01/11 16:15:10;;;;;;;28.30;15.05;;;;;;;-144.32;100.00;68061.97;10344862;28;20068;-78
2024/01/11 16:21:10;;;;;;;30.85;16.30;;;;;;;-144.32;100.00;68061.97;10363028;28;20081;-76
2024/01/11 16:27:11;;;;;;;26.08;14.07;;;;;;;-144.32;100.00;68061.97;10355976;28;20476;-77
2024/01/11 16:33:11;;;;;;;24.63;14.20;;;;;;;-144.32;100.00;68061.97;10354212;28;20134;-74
2024/01/11 16:39:11;;;;;;;25.85;14.88;;;;;;;-144.32;100.00;68061.97;10330282;28;20058;-77
2024/01/11 16:45:10;;;;;;;31.80;16.20;;;;;;;-144.32;100.00;68061.97;10348664;28;20148;-75
2024/01/11 16:51:09;;;;;;;30.75;17.40;;;;;;;-144.32;100.00;68061.97;10346374;28;20595;-76
2024/01/11 16:57:09;;;;;;;28.55;17.23;;;;;;;-144.32;100.00;68061.97;10365983;28;20077;-77
2024/01/11 17:03:08;;;;;;;33.33;18.52;;;;;;;-144.32;100.00;68061.97;10354342;28;20054;-76
2024/01/11 17:09:07;;;;;;;32.47;18.40;;;;;;;-144.32;100.00;68061.97;10339218;28;20145;-78
2024/01/11 17:15:07;;;;;;;37.22;19.60;;;;;;;-144.32;100.00;68061.97;10337006;28;20241;-76
2024/01/11 17:21:07;;;;;;;33.40;18.90;;;;;;;-144.32;100.00;68061.97;10358223;28;20058;-75
2024/01/11 17:27:07;;;;;;;28.88;17.45;;;;;;;-144.32;100.00;68061.97;10334790;28;20061;-75
2024/01/11 17:33:06;;;;;;;29.25;19.10;;;;;;;-144.32;100.00;68061.97;10351334;28;20210;-76
2024/01/11 17:39:05;;;;;;;34.65;19.63;;;;;;;-144.32;100.00;68061.97;10360722;28;20494;-76
2024/01/11 17:45:06;;;;;;;35.05;19.73;;;;;;;-144.32;100.00;68061.97;10355322;28;20517;-75
2024/01/11 17:51:09;;;;;;;31.73;18.88;;;;;;;-144.32;100.00;68061.97;10356901;28;20093;-75
2024/01/11 17:57:08;;;;;;;36.85;20.50;;;;;;;-144.32;100.00;68061.97;10357951;28;20623;-74
2024/01/11 18:03:08;;;;;;;37.72;20.25;;;;;;;-144.32;100.00;68061.97;10352490;28;20707;-75
2024/01/11 18:09:07;;;;;;;39.60;21.23;;;;;;;-144.32;100.00;68061.97;10351483;28;20623;-77
2024/01/11 18:15:07;;;;;;;41.17;23.70;;;;;;;-144.32;100.00;68061.97;10335499;28;20140;-76
2024/01/11 18:21:06;;;;;;;37.78;21.60;;;;;;;-144.32;100.00;68061.97;10356453;28;21270;-74
2024/01/11 18:27:08;;;;;;;34.83;20.90;;;;;;;-144.32;100.00;68061.97;10362150;28;20096;-77
2024/01/11 18:33:07;;;;;;;38.72;22.35;;;;;;;-144.32;100.00;68061.97;10355501;28;20115;-74
2024/01/11 18:39:09;;;;;;;38.90;22.23;;;;;;;-144.32;100.00;68061.97;10333620;28;21264;-78
2024/01/11 18:45:10;;;;;;;36.88;21.15;;;;;;;-144.32;100.00;68061.97;10373122;28;20461;-77
2024/01/11 18:51:10;;;;;;;38.53;20.52;;;;;;;-144.32;100.00;68061.97;10358146;28;20163;-77
2024/01/11 18:57:14;;;;;;;40.90;21.65;;;;;;;-144.32;100.00;68061.97;10333332;28;20058;-76
2024/01/11 19:03:14;;;;;;;45.47;23.70;;;;;;;-144.32;100.00;68061.97;10335052;28;20136;-77
2024/01/11 19:09:15;;;;;;;37.45;21.35;;;;;;;-144.32;100.00;68061.97;10333730;28;20052;-77
2024/01/11 19:15:15;;;;;;;39.38;20.77;;;;;;;-144.32;100.00;68061.97;10347715;28;20411;-76
2024/01/11 19:21:14;;;;;;;41.92;23.13;;;;;;;-144.32;100.00;68061.97;10349222;28;20050;-80
2024/01/11 19:27:13;;;;;;;44.50;23.02;;;;;;;-144.32;100.00;68061.97;10320947;28;20448;-79
2024/01/11 19:33:14;;;;;;;44.45;23.73;;;;;;;-144.32;100.00;68061.97;10375982;28;20054;-78
2024/01/11 19:39:13;;;;;;;39.75;23.88;;;;;;;-144.32;100.00;68061.97;10336089;28;20053;-80
2024/01/11 19:45:12;;;;;;;41.42;22.25;;;;;;;-144.32;100.00;68061.97;10331860;28;20427;-78
2024/01/11 19:51:12;;;;;;;40.78;22.38;;;;;;;-144.32;100.00;68061.97;10346709;28;20634;-79
2024/01/11 19:57:22;;;;;;;45.00;24.40;;;;;;;-144.32;100.00;68061.97;10330967;28;20058;-77
2024/01/11 20:03:21;;;;;;;46.47;24.15;;;;;;;-144.32;100.00;68061.97;10345280;28;20070;-75
2024/01/11 20:09:19;;;;;;;44.75;24.73;;;;;;;-144.32;100.00;68061.97;10333068;28;20054;-76
2024/01/11 20:15:19;;;;;;;43.17;24.38;;;;;;;-144.32;100.00;68061.97;10341077;28;20605;-76
2024/01/11 20:21:18;;;;;;;41.95;23.52;;;;;;;-144.32;100.00;68061.97;10348616;28;20069;-76
2024/01/11 20:27:18;;;;;;;46.25;24.90;;;;;;;-144.32;100.00;68061.97;10340331;28;20161;-79
2024/01/11 20:33:18;;;;;;;38.50;21.63;;;;;;;-144.32;100.00;68061.97;10365588;28;20132;-77
2024/01/11 20:39:18;;;;;;;42.67;22.05;;;;;;;-144.32;100.00;68061.97;10354250;28;20195;-75
2024/01/11 20:45:17;;;;;;;47.58;24.17;;;;;;;-144.32;100.00;68061.97;10342243;28;20094;-76
2024/01/11 20:51:19;;;;;;;45.35;23.73;;;;;;;-144.32;100.00;68061.97;10357748;28;20172;-78
2024/01/11 20:57:19;;;;;;;41.00;24.02;;;;;;;-144.32;100.00;68061.97;10335663;28;20053;-77
2024/01/11 21:03:19;;;;;;;43.03;24.58;;;;;;;-144.32;100.00;68061.97;10360009;28;20508;-77
2024/01/11 21:09:18;;;;;;;44.00;25.00;;;;;;;-144.32;100.00;68061.97;10376687;28;20143;-77
2024/01/11 21:15:17;;;;;;;43.70;24.90;;;;;;;-144.32;100.00;68061.97;10350536;28;20073;-78
2024/01/11 21:21:17;;;;;;;43.42;22.77;;;;;;;-144.32;100.00;68061.97;10365614;28;20062;-79
2024/01/11 21:27:16;;;;;;;40.33;22.45;;;;;;;-144.32;100.00;68061.97;10360433;28;20046;-75
2024/01/11 21:33:15;;;;;;;47.65;26.23;;;;;;;-144.32;100.00;68061.97;10335588;28;20126;-76
2024/01/11 21:39:15;;;;;;;49.45;25.67;;;;;;;-144.32;100.00;68061.97;10341168;28;20078;-77
2024/01/11 21:45:14;;;;;;;47.20;24.85;;;;;;;-144.32;100.00;68061.97;10355959;28;20049;-79
2024/01/11 21:51:13;;;;;;;48.47;26.77;;;;;;;-144.32;100.00;68061.97;10357013;28;20101;-77
2024/01/11 21:57:12;;;;;;;46.83;25.80;;;;;;;-144.32;100.00;68061.97;10343275;28;20627;-76
2024/01/11 22:03:11;;;;;;;49.00;26.10;;;;;;;-144.32;100.00;68061.97;10348429;28;20145;-77
2024/01/11 22:09:10;;;;;;;50.83;25.92;;;;;;;-144.32;100.00;68061.97;10333294;28;20105;-78
2024/01/11 22:15:10;;;;;;;48.95;26.38;;;;;;;-144.32;100.00;68061.97;10361116;28;20571;-78
2024/01/11 22:21:10;;;;;;;46.45;27.50;;;;;;;-144.32;100.00;68061.97;10390315;28;20053;-78
2024/01/11 22:27:09;;;;;;;56.25;28.48;;;;;;;-144.32;100.00;68061.97;10380582;28;20971;-76
2024/01/11 22:33:08;;;;;;;57.38;28.33;;;;;;;-144.32;100.00;68061.97;10363702;28;20560;-76
2024/01/11 22:39:09;;;;;;;56.35;28.02;;;;;;;-144.32;100.00;68061.97;10345578;28;20058;-77
2024/01/11 22:45:08;;;;;;;47.20;24.85;;;;;;;-144.32;100.00;68061.97;10377685;28;20065;-76
2024/01/11 22:51:08;;;;;;;44.88;24.13;;;;;;;-144.32;100.00;68061.97;10358601;28;20054;-76
2024/01/11 22:57:07;;;;;;;35.55;20.50;;;;;;;-144.32;100.00;68061.97;10347939;28;20073;-78
2024/01/11 23:03:06;;;;;;;37.72;19.60;;;;;;;-144.32;100.00;68061.97;10353557;28;20065;-77
2024/01/11 23:09:09;;;;;;;34.83;18.48;;;;;;;-144.32;100.00;68061.97;10350264;28;20045;-77
2024/01/11 23:15:12;;;;;;;40.80;20.00;;;;;;;-144.32;100.00;68061.97;10353573;28;20061;-76
2024/01/11 23:21:11;;;;;;;33.53;18.90;;;;;;;-144.32;100.00;68061.97;10334766;28;20057;-77
2024/01/11 23:27:11;;;;;;;35.38;18.90;;;;;;;-144.32;100.00;68061.97;10349523;28;20510;-78
2024/01/11 23:33:11;;;;;;;31.58;17.67;;;;;;;-144.32;100.00;68061.97;10347597;28;20772;-76
2024/01/11 23:39:10;;;;;;;31.85;18.15;;;;;;;-144.32;100.00;68061.97;10352164;28;20097;-77
2024/01/11 23:45:09;;;;;;;32.20;16.67;;;;;;;-144.32;100.00;68061.97;10333558;28;20152;-75
2024/01/11 23:51:08;;;;;;;28.42;15.75;;;;;;;-144.32;100.00;68061.97;10350474;28;20196;-77
2024/01/11 23:57:07;;;;;;;31.08;16.73;;;;;;;-144.32;100.00;68061.97;10332324;28;20062;-79
